Time;durP1;ratioP1;P1;durP2;ratioP2;P2;SDS_P1;SDS_P2;PMS_P1;PMS_P2;Temp;Humidity;BMP_temperature;BMP_pressure;BME280_temperature;BME280_humidity;BME280_pressure;Samples;Min_cycle;Max_cycle;Signal;HPM_P1;HPM_P2
2021/10/05 00:01:10;;;;;;;5.03;1.30;;;16.20;79.40;;;;;;5085845;28;20103;-73
2021/10/05 00:03:36;;;;;;;4.25;1.30;;;16.10;79.40;;;;;;5072317;28;20086;-73
2021/10/05 00:06:02;;;;;;;2.88;1.40;;;16.10;79.50;;;;;;5094920;28;20059;-73
2021/10/05 00:08:28;;;;;;;3.17;1.33;;;16.20;79.50;;;;;;5082406;28;20077;-73
2021/10/05 00:10:55;;;;;;;5.22;1.40;;;16.10;79.80;;;;;;5091959;28;20425;-73
2021/10/05 00:13:21;;;;;;;6.25;1.48;;;16.10;80.10;;;;;;5079711;28;20145;-73
2021/10/05 00:15:47;;;;;;;5.95;1.27;;;16.10;80.70;;;;;;5090976;28;20028;-73
2021/10/05 00:18:12;;;;;;;1.55;1.08;;;16.00;80.30;;;;;;5075576;28;20594;-73
2021/10/05 00:20:38;;;;;;;4.82;1.30;;;16.10;80.30;;;;;;5082943;28;20020;-73
2021/10/05 00:23:04;;;;;;;5.50;1.40;;;16.00;80.20;;;;;;5092114;28;20039;-73
2021/10/05 00:25:29;;;;;;;8.45;1.33;;;16.00;80.20;;;;;;5095444;28;20020;-73
2021/10/05 00:27:55;;;;;;;4.35;1.15;;;16.00;80.00;;;;;;5088003;28;20107;-73
2021/10/05 00:30:20;;;;;;;7.47;1.27;;;16.00;79.90;;;;;;5080319;28;20023;-73
2021/10/05 00:32:46;;;;;;;3.58;1.30;;;16.00;79.70;;;;;;5081642;28;20468;-73
2021/10/05 00:35:12;;;;;;;3.45;1.02;;;16.00;79.50;;;;;;5091045;28;20110;-73
2021/10/05 00:37:37;;;;;;;2.85;1.33;;;16.00;79.70;;;;;;5089389;28;20028;-73
2021/10/05 00:40:05;;;;;;;6.68;1.50;;;16.00;79.60;;;;;;5089780;28;20088;-73
2021/10/05 00:42:30;;;;;;;4.38;1.20;;;16.00;79.70;;;;;;5081859;28;20094;-73
2021/10/05 00:44:56;;;;;;;2.70;1.20;;;16.00;79.30;;;;;;5087855;28;20032;-73
2021/10/05 00:47:22;;;;;;;4.55;1.30;;;15.90;79.20;;;;;;5088163;28;20024;-73
2021/10/05 00:49:49;;;;;;;2.53;1.40;;;15.90;79.10;;;;;;5092451;28;20029;-73
2021/10/05 00:52:16;;;;;;;3.50;1.58;;;15.90;78.90;;;;;;5090781;28;20043;-73
2021/10/05 00:54:43;;;;;;;5.03;1.52;;;15.90;78.90;;;;;;5085014;28;20541;-73
2021/10/05 00:57:10;;;;;;;3.42;1.20;;;15.90;78.80;;;;;;5090364;28;20372;-73
2021/10/05 00:59:36;;;;;;;5.50;1.50;;;15.90;78.80;;;;;;5092865;28;20052;-73
2021/10/05 01:02:06;;;;;;;4.43;1.77;;;15.90;78.80;;;;;;5084164;28;20029;-73
2021/10/05 01:04:32;;;;;;;3.78;1.40;;;15.90;79.00;;;;;;5093528;28;20028;-73
2021/10/05 01:07:02;;;;;;;6.63;1.50;;;15.80;78.90;;;;;;5092555;28;20024;-73
2021/10/05 01:09:28;;;;;;;6.93;1.42;;;15.80;79.10;;;;;;5082091;28;20042;-73
2021/10/05 01:11:54;;;;;;;6.63;1.90;;;15.80;79.80;;;;;;5076718;28;20552;-73
2021/10/05 01:14:21;;;;;;;4.43;1.63;;;15.80;80.20;;;;;;5093940;28;20032;-73
2021/10/05 01:16:47;;;;;;;10.82;1.95;;;15.80;80.10;;;;;;5091410;28;20048;-74
2021/10/05 01:19:12;;;;;;;6.95;2.08;;;15.80;80.20;;;;;;5090626;28;20074;-73
2021/10/05 01:21:38;;;;;;;6.80;2.40;;;15.70;80.20;;;;;;5086965;28;20459;-73
2021/10/05 01:24:10;;;;;;;8.15;2.63;;;15.70;80.20;;;;;;5087226;28;20044;-74
2021/10/05 01:26:36;;;;;;;6.10;3.08;;;15.70;80.20;;;;;;5084241;28;20150;-73
2021/10/05 01:29:04;;;;;;;3.97;2.20;;;15.70;80.10;;;;;;5090574;28;20476;-73
2021/10/05 01:31:38;;;;;;;5.15;2.55;;;15.70;80.10;;;;;;5084876;28;20033;-73
2021/10/05 01:34:04;;;;;;;5.60;2.38;;;15.60;80.00;;;;;;5084878;28;20024;-73
2021/10/05 01:36:30;;;;;;;7.50;2.85;;;15.60;80.10;;;;;;5080938;28;20024;-73
2021/10/05 01:38:56;;;;;;;10.35;2.65;;;15.60;80.00;;;;;;5074111;28;20056;-73
2021/10/05 01:41:22;;;;;;;5.38;2.30;;;15.60;79.90;;;;;;5076664;28;20036;-73
2021/10/05 01:43:48;;;;;;;7.13;3.20;;;15.60;80.00;;;;;;5083888;28;20047;-73
2021/10/05 01:46:14;;;;;;;9.25;3.63;;;15.50;79.70;;;;;;5077818;28;20094;-73
2021/10/05 01:48:43;;;;;;;7.90;3.42;;;15.50;79.50;;;;;;5076151;28;20373;-73
2021/10/05 01:51:10;;;;;;;6.97;3.28;;;15.50;79.20;;;;;;5078758;28;20036;-73
2021/10/05 01:53:36;;;;;;;7.25;3.28;;;15.50;79.30;;;;;;5098075;28;20031;-73
2021/10/05 01:56:03;;;;;;;6.63;2.72;;;15.40;79.10;;;;;;5078357;28;20024;-73
2021/10/05 01:58:29;;;;;;;7.32;3.13;;;15.40;79.90;;;;;;5090794;28;20035;-73
2021/10/05 02:00:54;;;;;;;7.43;2.78;;;15.40;79.20;;;;;;5079990;28;20398;-73
2021/10/05 02:03:20;;;;;;;7.38;3.25;;;15.40;79.20;;;;;;5084588;28;20145;-73
2021/10/05 02:05:46;;;;;;;6.65;2.72;;;15.30;79.10;;;;;;5088230;28;20024;-73
2021/10/05 02:08:12;;;;;;;4.40;2.10;;;15.30;79.30;;;;;;5083137;28;20031;-73
2021/10/05 02:10:38;;;;;;;7.88;2.30;;;15.30;79.40;;;;;;5082970;28;20020;-73
2021/10/05 02:13:05;;;;;;;7.18;2.30;;;15.20;79.50;;;;;;5082161;28;20036;-73
2021/10/05 02:15:31;;;;;;;6.85;2.33;;;15.20;79.70;;;;;;5085748;28;20029;-73
2021/10/05 02:17:57;;;;;;;7.70;2.63;;;15.20;79.70;;;;;;5089105;28;20494;-73
2021/10/05 02:20:24;;;;;;;8.85;2.60;;;15.20;79.70;;;;;;5092379;28;20031;-73
2021/10/05 02:22:49;;;;;;;13.70;2.30;;;15.10;79.60;;;;;;5085389;28;20082;-73
2021/10/05 02:25:15;;;;;;;12.63;2.60;;;15.10;79.60;;;;;;5083157;28;20032;-72
2021/10/05 02:27:41;;;;;;;3.85;2.20;;;15.10;79.80;;;;;;5083969;28;20034;-73
2021/10/05 02:30:07;;;;;;;7.47;2.28;;;15.10;79.80;;;;;;5092779;28;20035;-73
2021/10/05 02:32:33;;;;;;;4.03;2.13;;;15.10;80.30;;;;;;5084365;28;20034;-73
2021/10/05 02:35:00;;;;;;;11.60;2.95;;;15.00;80.20;;;;;;5091500;28;20387;-73
2021/10/05 02:37:30;;;;;;;6.70;2.55;;;15.00;80.00;;;;;;5087747;28;20038;-73
2021/10/05 02:39:57;;;;;;;8.45;2.63;;;15.00;80.10;;;;;;5086516;28;20182;-73
2021/10/05 02:42:24;;;;;;;6.90;2.75;;;14.90;80.10;;;;;;5086533;28;20471;-73
2021/10/05 02:44:50;;;;;;;8.48;3.00;;;15.00;80.20;;;;;;5085228;28;20028;-73
2021/10/05 02:47:15;;;;;;;8.82;2.78;;;14.80;80.20;;;;;;5086156;28;20035;-73
2021/10/05 02:49:44;;;;;;;9.70;4.72;;;14.90;80.50;;;;;;5074882;28;20506;-73
2021/10/05 02:52:12;;;;;;;11.20;5.63;;;14.80;80.70;;;;;;5085532;28;20081;-73
2021/10/05 02:54:38;;;;;;;12.27;5.32;;;14.80;80.80;;;;;;5080526;28;20541;-73
2021/10/05 02:57:04;;;;;;;9.20;5.07;;;14.80;80.90;;;;;;5081764;28;20020;-73
2021/10/05 02:59:29;;;;;;;9.90;5.22;;;14.80;81.80;;;;;;5086928;28;20058;-73
2021/10/05 03:01:55;;;;;;;11.55;4.32;;;14.70;81.10;;;;;;5087888;28;20028;-73
2021/10/05 03:04:22;;;;;;;9.77;4.32;;;14.70;81.10;;;;;;5081089;28;20080;-73
2021/10/05 03:06:47;;;;;;;7.07;4.15;;;14.70;81.10;;;;;;5080834;28;20036;-73
2021/10/05 03:09:13;;;;;;;10.50;3.83;;;14.70;81.30;;;;;;5085440;28;20024;-73
2021/10/05 03:11:38;;;;;;;5.78;3.47;;;14.70;81.30;;;;;;5083597;28;20062;-74
2021/10/05 03:14:04;;;;;;;5.07;2.80;;;14.70;81.40;;;;;;5074941;28;20455;-73
2021/10/05 03:16:30;;;;;;;7.45;3.40;;;14.70;81.50;;;;;;5085074;28;20024;-74
2021/10/05 03:18:55;;;;;;;7.93;3.17;;;14.70;81.40;;;;;;5086050;28;20040;-73
2021/10/05 03:21:21;;;;;;;11.43;2.97;;;14.70;81.40;;;;;;5091403;28;20032;-73
2021/10/05 03:23:47;;;;;;;4.78;2.85;;;14.70;81.70;;;;;;5085595;28;20044;-74
2021/10/05 03:26:13;;;;;;;4.22;2.95;;;14.70;81.70;;;;;;5087200;28;20020;-73
2021/10/05 03:28:38;;;;;;;6.65;2.70;;;14.70;81.60;;;;;;5082991;28;20460;-74
2021/10/05 03:31:04;;;;;;;8.07;3.10;;;14.70;81.80;;;;;;5091359;28;20032;-73
2021/10/05 03:33:29;;;;;;;14.70;3.00;;;14.70;81.80;;;;;;5083486;28;20016;-72
2021/10/05 03:35:55;;;;;;;4.75;3.00;;;14.60;81.70;;;;;;5082034;28;20539;-72
2021/10/05 03:38:22;;;;;;;8.05;2.85;;;14.60;81.60;;;;;;5085645;28;20060;-72
2021/10/05 03:40:50;;;;;;;5.63;3.10;;;14.60;81.70;;;;;;5079592;28;20056;-74
2021/10/05 03:43:16;;;;;;;6.18;3.03;;;14.60;81.80;;;;;;5092184;28;20392;-72
2021/10/05 03:45:41;;;;;;;8.70;3.08;;;14.50;81.80;;;;;;5083747;28;20025;-73
2021/10/05 03:48:07;;;;;;;4.40;2.90;;;14.50;81.90;;;;;;5085117;28;20031;-73
2021/10/05 03:50:33;;;;;;;6.60;2.92;;;14.50;82.00;;;;;;5077013;28;20052;-73
2021/10/05 03:52:58;;;;;;;7.07;3.38;;;14.50;82.10;;;;;;5090960;28;20030;-73
2021/10/05 03:55:24;;;;;;;8.38;3.50;;;14.40;82.30;;;;;;5088505;28;20028;-73
2021/10/05 03:57:49;;;;;;;7.68;3.20;;;14.40;82.50;;;;;;5082554;28;20484;-73
2021/10/05 04:00:15;;;;;;;8.00;3.10;;;14.40;82.50;;;;;;5080462;28;20487;-73
2021/10/05 04:02:41;;;;;;;4.72;2.85;;;14.30;82.50;;;;;;5072627;28;20127;-73
2021/10/05 04:05:08;;;;;;;8.77;3.10;;;14.30;82.70;;;;;;5073862;28;20059;-74
2021/10/05 04:07:34;;;;;;;5.70;3.38;;;14.30;82.80;;;;;;5078242;28;20031;-74
2021/10/05 04:09:59;;;;;;;6.85;3.17;;;14.20;82.90;;;;;;5076985;28;20021;-74
2021/10/05 04:12:25;;;;;;;11.35;3.30;;;14.30;83.00;;;;;;5072626;28;20025;-73
2021/10/05 04:14:50;;;;;;;5.18;2.85;;;14.20;83.10;;;;;;5077964;28;20028;-74
2021/10/05 04:17:17;;;;;;;5.07;2.80;;;14.20;83.20;;;;;;5072086;28;20141;-73
2021/10/05 04:19:44;;;;;;;5.43;3.30;;;14.20;83.40;;;;;;5077752;28;20036;-73
2021/10/05 04:22:09;;;;;;;4.72;2.17;;;14.20;83.50;;;;;;5078953;28;20388;-73
2021/10/05 04:24:35;;;;;;;7.28;2.90;;;14.20;83.70;;;;;;5075735;28;20033;-74
2021/10/05 04:27:00;;;;;;;8.35;3.35;;;14.10;83.70;;;;;;5084943;28;20035;-73
2021/10/05 04:29:26;;;;;;;11.77;3.05;;;14.10;83.80;;;;;;5077895;28;20591;-74
2021/10/05 04:31:52;;;;;;;7.45;3.13;;;14.10;83.90;;;;;;5075036;28;20029;-74
2021/10/05 04:34:17;;;;;;;5.38;3.08;;;14.10;83.90;;;;;;5073207;28;20028;-74
2021/10/05 04:36:43;;;;;;;6.78;3.05;;;14.10;84.00;;;;;;5087560;28;20039;-73
2021/10/05 04:39:08;;;;;;;5.40;3.30;;;14.10;84.10;;;;;;5085298;28;20055;-73
2021/10/05 04:41:34;;;;;;;5.43;3.50;;;14.10;84.10;;;;;;5078684;28;20024;-73
2021/10/05 04:44:00;;;;;;;10.45;3.75;;;14.10;84.20;;;;;;5072416;28;20094;-72
2021/10/05 04:46:26;;;;;;;8.48;3.42;;;14.10;84.30;;;;;;5075139;28;20046;-71
2021/10/05 04:48:51;;;;;;;7.88;3.38;;;14.10;84.30;;;;;;5076845;28;20032;-74
2021/10/05 04:51:17;;;;;;;6.28;2.95;;;14.10;84.40;;;;;;5082233;28;20505;-73
2021/10/05 04:53:42;;;;;;;6.63;3.25;;;14.00;84.40;;;;;;5072370;28;20028;-73
2021/10/05 04:56:08;;;;;;;6.72;3.60;;;14.00;84.50;;;;;;5085272;28;20052;-74
2021/10/05 04:58:34;;;;;;;6.80;2.67;;;14.00;84.60;;;;;;5080272;28;20028;-71
2021/10/05 05:00:59;;;;;;;6.22;3.60;;;14.00;84.60;;;;;;5078996;28;20103;-72
2021/10/05 05:03:27;;;;;;;6.75;3.35;;;14.00;84.70;;;;;;5071769;28;20518;-71
2021/10/05 05:05:53;;;;;;;4.35;2.80;;;14.00;85.00;;;;;;5078978;28;20033;-72
2021/10/05 05:08:18;;;;;;;6.07;3.47;;;14.00;85.00;;;;;;5079201;28;20081;-73
2021/10/05 05:10:44;;;;;;;13.07;3.88;;;13.90;85.00;;;;;;5077780;28;20104;-73
2021/10/05 05:13:10;;;;;;;3.72;2.58;;;13.90;85.00;;;;;;5074704;28;20024;-73
2021/10/05 05:15:35;;;;;;;7.30;3.40;;;14.00;85.10;;;;;;5079902;28;20016;-74
2021/10/05 05:18:01;;;;;;;7.20;3.60;;;13.90;85.10;;;;;;5087272;28;20475;-73
2021/10/05 05:20:27;;;;;;;8.15;3.33;;;13.90;85.10;;;;;;5087137;28;20032;-72
2021/10/05 05:22:52;;;;;;;9.20;3.75;;;13.90;85.20;;;;;;5087438;28;20036;-73
2021/10/05 05:25:18;;;;;;;6.47;3.33;;;13.90;85.20;;;;;;5080482;28;20075;-73
2021/10/05 05:27:44;;;;;;;10.18;3.58;;;14.00;85.30;;;;;;5081568;28;20032;-75
2021/10/05 05:30:09;;;;;;;10.02;3.63;;;13.90;85.30;;;;;;5087287;28;20027;-72
2021/10/05 05:32:35;;;;;;;5.43;3.35;;;13.90;85.30;;;;;;5082133;28;20028;-72
2021/10/05 05:35:01;;;;;;;6.68;3.55;;;13.90;85.40;;;;;;5080129;28;21807;-72
2021/10/05 05:37:27;;;;;;;7.78;3.40;;;13.90;85.50;;;;;;5079769;28;20020;-72
2021/10/05 05:39:53;;;;;;;7.03;3.83;;;13.90;85.40;;;;;;5090547;28;20135;-71
2021/10/05 05:42:18;;;;;;;6.55;3.35;;;13.90;85.50;;;;;;5090831;28;20352;-71
2021/10/05 05:44:44;;;;;;;8.30;4.35;;;13.80;85.50;;;;;;5085609;28;20025;-73
2021/10/05 05:47:10;;;;;;;9.05;3.85;;;13.90;85.60;;;;;;5082847;28;20050;-73
2021/10/05 05:49:35;;;;;;;7.03;4.38;;;13.80;85.60;;;;;;5094140;28;20020;-73
2021/10/05 05:52:01;;;;;;;9.10;3.70;;;13.80;85.60;;;;;;5090254;28;20115;-73
2021/10/05 05:54:26;;;;;;;5.43;3.60;;;13.90;85.70;;;;;;5091585;28;20372;-73
2021/10/05 05:56:52;;;;;;;11.00;3.45;;;13.80;85.70;;;;;;5079211;28;20024;-73
2021/10/05 05:59:19;;;;;;;6.47;3.08;;;13.80;85.70;;;;;;5091468;28;20020;-73
2021/10/05 06:01:44;;;;;;;6.57;3.80;;;13.80;85.70;;;;;;5090385;28;20043;-73
2021/10/05 06:04:10;;;;;;;8.93;3.80;;;13.80;85.80;;;;;;5086138;28;20032;-73
2021/10/05 06:06:36;;;;;;;12.05;3.83;;;13.80;85.80;;;;;;5079518;28;20024;-73
2021/10/05 06:09:03;;;;;;;8.43;3.05;;;13.80;85.80;;;;;;5089906;28;20471;-73
2021/10/05 06:11:32;;;;;;;13.65;4.18;;;13.80;85.80;;;;;;5086788;28;20051;-73
2021/10/05 06:13:57;;;;;;;7.00;3.13;;;13.80;85.80;;;;;;5087524;28;20034;-73
2021/10/05 06:16:23;;;;;;;12.73;4.18;;;13.80;85.80;;;;;;5087790;28;20032;-76
2021/10/05 06:18:49;;;;;;;7.60;3.65;;;13.80;85.90;;;;;;5084845;28;20039;-75
2021/10/05 06:21:15;;;;;;;5.13;3.47;;;13.80;86.10;;;;;;5089004;28;20467;-73
2021/10/05 06:23:41;;;;;;;7.30;3.63;;;13.80;86.10;;;;;;5090609;28;20152;-73
2021/10/05 06:26:07;;;;;;;5.43;3.22;;;13.70;86.00;;;;;;5090527;28;20034;-72
2021/10/05 06:28:33;;;;;;;7.45;3.05;;;13.80;86.20;;;;;;5092851;28;20032;-73
2021/10/05 06:31:01;;;;;;;5.53;3.65;;;13.70;86.10;;;;;;5092649;28;20069;-73
2021/10/05 06:33:27;;;;;;;8.82;3.83;;;13.70;86.20;;;;;;5092466;28;20384;-74
2021/10/05 06:35:53;;;;;;;6.40;3.38;;;13.80;86.30;;;;;;5087164;28;20148;-73
2021/10/05 06:38:18;;;;;;;5.35;3.50;;;13.70;86.30;;;;;;5088659;28;20028;-73
2021/10/05 06:40:44;;;;;;;8.00;3.45;;;13.70;86.30;;;;;;5084439;28;20154;-73
2021/10/05 06:43:10;;;;;;;9.57;4.03;;;13.70;86.40;;;;;;5085880;28;20043;-73
2021/10/05 06:45:37;;;;;;;6.43;3.70;;;13.70;86.50;;;;;;5082437;28;20066;-74
2021/10/05 06:48:03;;;;;;;6.35;3.80;;;13.70;87.30;;;;;;5083007;28;20031;-73
2021/10/05 06:50:30;;;;;;;10.50;3.75;;;13.70;86.80;;;;;;5077450;28;20112;-73
2021/10/05 06:52:59;;;;;;;11.38;3.70;;;13.70;86.90;;;;;;5081359;28;20047;-73
2021/10/05 06:55:25;;;;;;;7.00;3.67;;;13.70;87.00;;;;;;5091541;28;20111;-73
2021/10/05 06:57:50;;;;;;;5.95;2.47;;;13.70;87.20;;;;;;5088041;28;20115;-72
2021/10/05 07:00:16;;;;;;;6.55;2.90;;;13.70;87.90;;;;;;5088166;28;20024;-75
2021/10/05 07:02:44;;;;;;;5.82;3.90;;;13.70;88.40;;;;;;5090274;28;20044;-73
2021/10/05 07:05:22;;;;;;;7.30;3.88;;;13.70;88.60;;;;;;5078926;28;20035;-73
2021/10/05 07:07:50;;;;;;;6.15;3.67;;;13.70;89.10;;;;;;5072018;28;20025;-73
2021/10/05 07:10:19;;;;;;;5.68;3.47;;;13.80;88.50;;;;;;5073363;28;20021;-73
2021/10/05 07:12:44;;;;;;;9.93;3.80;;;13.80;88.50;;;;;;5079106;28;20028;-73
2021/10/05 07:15:11;;;;;;;6.57;3.92;;;13.80;88.60;;;;;;5072523;28;20036;-73
2021/10/05 07:17:37;;;;;;;6.63;3.85;;;13.80;88.70;;;;;;5075339;28;20111;-73
2021/10/05 07:20:04;;;;;;;8.38;3.92;;;13.80;88.80;;;;;;5082042;28;20162;-73
2021/10/05 07:22:30;;;;;;;6.32;3.90;;;13.80;89.00;;;;;;5083019;28;20044;-74
2021/10/05 07:24:56;;;;;;;5.88;3.38;;;13.90;89.10;;;;;;5084230;28;20055;-73
2021/10/05 07:27:22;;;;;;;8.63;3.85;;;13.90;89.10;;;;;;5083180;28;20059;-73
2021/10/05 07:29:47;;;;;;;5.22;3.50;;;14.00;89.30;;;;;;5081085;28;20032;-73
2021/10/05 07:32:14;;;;;;;5.95;3.35;;;14.00;89.30;;;;;;5073997;28;20031;-73
2021/10/05 07:34:39;;;;;;;5.75;3.30;;;14.00;89.40;;;;;;5079738;28;20028;-73
2021/10/05 07:37:06;;;;;;;5.10;3.35;;;14.00;89.50;;;;;;5079812;28;20107;-73
2021/10/05 07:39:32;;;;;;;9.13;3.20;;;14.00;89.60;;;;;;5079812;28;20051;-73
2021/10/05 07:41:57;;;;;;;5.43;3.05;;;14.10;89.50;;;;;;5075734;28;20029;-73
2021/10/05 07:44:23;;;;;;;8.20;3.42;;;14.10;89.50;;;;;;5083973;28;20074;-73
2021/10/05 07:46:49;;;;;;;6.57;3.13;;;14.10;89.40;;;;;;5074939;28;20038;-73
2021/10/05 07:49:15;;;;;;;7.88;2.58;;;14.10;89.30;;;;;;5083949;28;20028;-73
2021/10/05 07:51:41;;;;;;;7.38;3.70;;;14.10;89.30;;;;;;5084814;28;20024;-73
2021/10/05 07:54:06;;;;;;;5.65;3.63;;;14.20;89.40;;;;;;5075616;28;20056;-73
2021/10/05 07:56:33;;;;;;;5.63;3.42;;;14.20;89.40;;;;;;5070518;28;20111;-73
2021/10/05 07:58:59;;;;;;;5.55;3.70;;;14.20;89.40;;;;;;5087991;28;20047;-73
2021/10/05 08:01:25;;;;;;;5.88;3.90;;;14.20;89.50;;;;;;5086653;28;20027;-74
2021/10/05 08:03:51;;;;;;;5.47;3.15;;;14.30;89.50;;;;;;5081909;28;20380;-73
2021/10/05 08:06:16;;;;;;;3.72;2.70;;;14.30;89.40;;;;;;5078508;28;20024;-73
2021/10/05 08:08:44;;;;;;;4.97;2.92;;;14.40;89.20;;;;;;5083467;28;20043;-73
2021/10/05 08:11:10;;;;;;;5.90;3.55;;;14.40;89.10;;;;;;5082174;28;20038;-73
2021/10/05 08:13:38;;;;;;;4.97;3.60;;;14.40;89.20;;;;;;5076628;28;20038;-73
2021/10/05 08:16:04;;;;;;;4.15;3.20;;;14.50;89.30;;;;;;5086502;28;20039;-73
2021/10/05 08:18:29;;;;;;;8.60;3.13;;;14.50;89.00;;;;;;5089607;28;20032;-73
2021/10/05 08:20:56;;;;;;;11.02;3.50;;;14.50;89.00;;;;;;5089283;28;20032;-73
2021/10/05 08:23:22;;;;;;;4.45;3.20;;;14.50;89.00;;;;;;5086251;28;20045;-73
2021/10/05 08:25:47;;;;;;;8.93;3.40;;;14.60;89.10;;;;;;5072953;28;20371;-73
2021/10/05 08:28:13;;;;;;;11.32;3.63;;;14.60;88.90;;;;;;5078634;28;20024;-73
2021/10/05 08:30:39;;;;;;;5.45;3.30;;;14.60;88.80;;;;;;5079336;28;20032;-73
2021/10/05 08:33:05;;;;;;;4.40;3.10;;;14.60;88.70;;;;;;5079954;28;20480;-73
2021/10/05 08:35:31;;;;;;;5.13;2.97;;;14.60;88.60;;;;;;5076212;28;20060;-73
2021/10/05 08:37:57;;;;;;;4.65;3.20;;;14.60;88.40;;;;;;5073779;28;20036;-73
2021/10/05 08:40:24;;;;;;;5.45;3.38;;;14.70;88.40;;;;;;5080982;28;20499;-73
2021/10/05 08:42:50;;;;;;;6.18;3.20;;;14.70;88.40;;;;;;5087439;28;20048;-73
2021/10/05 08:45:17;;;;;;;5.03;3.58;;;14.70;88.30;;;;;;5079022;28;20063;-73
2021/10/05 08:47:43;;;;;;;11.35;3.58;;;14.70;88.30;;;;;;5080394;28;20051;-73
2021/10/05 08:50:11;;;;;;;8.50;3.35;;;14.70;88.30;;;;;;5081429;28;20077;-74
2021/10/05 08:52:37;;;;;;;10.75;3.80;;;14.70;88.20;;;;;;5078998;28;20028;-73
2021/10/05 08:55:05;;;;;;;4.57;3.25;;;14.70;88.20;;;;;;5080930;28;20372;-74
2021/10/05 08:57:31;;;;;;;4.55;3.50;;;14.70;88.40;;;;;;5081912;28;20444;-76
2021/10/05 08:59:58;;;;;;;10.77;3.70;;;14.70;88.40;;;;;;5085220;28;20036;-74
2021/10/05 09:02:24;;;;;;;5.80;3.70;;;14.80;88.50;;;;;;5082104;28;20033;-75
2021/10/05 09:04:55;;;;;;;8.07;3.70;;;14.80;88.50;;;;;;5081629;28;20040;-76
2021/10/05 09:07:23;;;;;;;7.60;3.80;;;14.80;88.50;;;;;;5088030;28;20034;-74
2021/10/05 09:09:54;;;;;;;6.78;2.78;;;14.80;88.40;;;;;;5076697;27;20029;-74
2021/10/05 09:12:22;;;;;;;5.65;4.00;;;14.90;88.50;;;;;;5082015;28;20028;-73
2021/10/05 09:14:48;;;;;;;9.07;4.40;;;14.80;88.70;;;;;;5076875;28;20046;-71
2021/10/05 09:17:28;;;;;;;5.75;3.20;;;14.90;88.90;;;;;;5091750;28;20060;-71
2021/10/05 09:19:56;;;;;;;6.95;3.90;;;14.90;88.90;;;;;;5089477;28;21198;-72
2021/10/05 09:22:26;;;;;;;8.10;3.80;;;14.90;88.80;;;;;;5081903;28;20514;-73
2021/10/05 09:24:54;;;;;;;9.20;3.40;;;14.90;88.60;;;;;;5076951;28;20024;-72
2021/10/05 09:27:21;;;;;;;12.13;3.80;;;15.00;88.60;;;;;;5082870;28;20095;-72
2021/10/05 09:29:49;;;;;;;8.77;3.72;;;15.00;88.50;;;;;;5077363;28;20031;-72
2021/10/05 09:32:20;;;;;;;6.75;3.53;;;15.00;88.40;;;;;;5078100;28;20032;-73
2021/10/05 09:34:53;;;;;;;7.72;3.30;;;15.00;88.30;;;;;;5086074;28;20027;-73
2021/10/05 09:37:27;;;;;;;7.95;3.75;;;15.00;88.20;;;;;;5085625;28;20039;-75
2021/10/05 09:40:10;;;;;;;6.70;3.80;;;15.10;88.10;;;;;;5080724;28;20560;-75
2021/10/05 09:42:41;;;;;;;9.18;3.97;;;15.10;88.10;;;;;;5080855;28;20067;-75
2021/10/05 09:45:08;;;;;;;5.13;3.60;;;15.10;88.00;;;;;;5077727;28;20032;-75
2021/10/05 09:47:41;;;;;;;8.18;4.10;;;15.20;88.10;;;;;;5078438;28;20016;-75
2021/10/05 09:50:17;;;;;;;7.82;3.90;;;15.20;88.10;;;;;;5077536;28;20057;-75
2021/10/05 09:52:46;;;;;;;8.10;3.58;;;15.20;88.10;;;;;;5074915;28;20029;-75
2021/10/05 09:55:13;;;;;;;4.97;3.58;;;15.20;88.20;;;;;;5082459;28;20510;-75
2021/10/05 09:57:38;;;;;;;5.50;3.90;;;15.20;88.20;;;;;;5079252;28;20541;-75
2021/10/05 10:00:09;;;;;;;6.53;3.60;;;15.30;88.10;;;;;;5076931;28;20029;-75
2021/10/05 10:02:42;;;;;;;6.68;3.47;;;15.30;88.30;;;;;;5075244;28;20447;-75
2021/10/05 10:05:17;;;;;;;4.90;3.30;;;15.30;88.40;;;;;;5077028;28;20029;-75
2021/10/05 10:07:46;;;;;;;8.45;4.13;;;15.40;88.40;;;;;;5079293;28;20379;-76
2021/10/05 10:10:14;;;;;;;7.40;4.03;;;15.40;88.30;;;;;;5081505;28;20475;-75
2021/10/05 10:12:48;;;;;;;5.82;4.18;;;15.40;88.20;;;;;;5085282;28;20028;-73
2021/10/05 10:15:15;;;;;;;9.15;3.88;;;15.50;88.40;;;;;;5084206;28;20028;-73
2021/10/05 10:17:41;;;;;;;6.80;3.30;;;15.50;88.40;;;;;;5077483;28;20028;-73
2021/10/05 10:20:19;;;;;;;6.15;3.70;;;15.50;89.30;;;;;;5076588;28;20041;-74
2021/10/05 10:22:45;;;;;;;9.52;3.65;;;15.50;88.80;;;;;;5084308;28;20092;-73
2021/10/05 10:25:26;;;;;;;6.90;3.72;;;15.60;88.80;;;;;;5082784;28;20114;-73
2021/10/05 10:27:56;;;;;;;7.13;3.30;;;15.70;88.80;;;;;;5077097;28;20031;-73
2021/10/05 10:30:28;;;;;;;8.00;3.80;;;15.60;88.60;;;;;;5082325;28;20028;-73
2021/10/05 10:33:00;;;;;;;8.27;3.60;;;15.70;89.00;;;;;;5086926;28;20032;-73
2021/10/05 10:35:26;;;;;;;4.80;3.80;;;15.80;89.40;;;;;;5086030;28;20105;-73
2021/10/05 10:37:53;;;;;;;7.65;3.40;;;15.80;89.50;;;;;;5075610;28;20039;-73
2021/10/05 10:40:32;;;;;;;5.38;3.08;;;15.90;89.70;;;;;;5080343;28;20068;-74
2021/10/05 10:43:17;;;;;;;6.93;3.30;;;15.90;90.00;;;;;;5082731;28;20040;-74
2021/10/05 10:45:46;;;;;;;6.10;3.00;;;16.00;89.80;;;;;;5074087;28;20031;-74
2021/10/05 10:48:12;;;;;;;7.05;2.95;;;16.00;89.50;;;;;;5087367;28;20394;-74
2021/10/05 10:50:38;;;;;;;10.05;2.65;;;16.10;89.30;;;;;;5087148;28;20029;-74
2021/10/05 10:53:06;;;;;;;4.97;2.60;;;16.10;89.00;;;;;;5073516;28;20114;-74
2021/10/05 10:55:34;;;;;;;11.65;3.33;;;16.20;88.80;;;;;;5090393;28;20028;-74
2021/10/05 10:58:00;;;;;;;6.45;2.75;;;16.30;88.60;;;;;;5093526;28;20082;-74
2021/10/05 11:00:30;;;;;;;5.90;2.58;;;16.30;88.10;;;;;;5087137;28;20027;-74
2021/10/05 11:02:59;;;;;;;6.03;2.50;;;16.30;88.20;;;;;;5088651;28;20044;-73
2021/10/05 11:05:26;;;;;;;6.72;2.67;;;16.40;88.20;;;;;;5085689;28;20425;-73
2021/10/05 11:07:55;;;;;;;5.53;2.67;;;16.50;88.90;;;;;;5072900;28;20051;-73
2021/10/05 11:10:27;;;;;;;6.82;2.50;;;16.50;88.40;;;;;;5075220;28;20392;-72
2021/10/05 11:12:55;;;;;;;5.10;2.03;;;16.60;88.30;;;;;;5076058;28;20521;-72
2021/10/05 11:15:42;;;;;;;8.70;2.42;;;16.60;88.40;;;;;;5077097;28;20049;-72
2021/10/05 11:18:16;;;;;;;2.83;1.92;;;16.70;88.40;;;;;;5074920;28;20025;-72
2021/10/05 11:20:44;;;;;;;2.45;1.77;;;16.70;87.80;;;;;;5073864;28;20526;-72
2021/10/05 11:23:10;;;;;;;4.85;2.20;;;16.80;87.20;;;;;;5078675;28;20032;-72
2021/10/05 11:25:36;;;;;;;4.78;2.08;;;16.80;87.10;;;;;;5085174;28;20475;-72
2021/10/05 11:28:13;;;;;;;7.60;2.20;;;16.90;87.00;;;;;;5077040;28;20028;-73
2021/10/05 11:31:04;;;;;;;3.88;2.30;;;17.00;87.00;;;;;;5092768;28;20103;-72
2021/10/05 11:33:38;;;;;;;2.22;1.80;;;17.00;86.80;;;;;;5092581;28;20032;-75
2021/10/05 11:36:21;;;;;;;3.95;1.63;;;17.10;86.40;;;;;;5078424;28;20115;-76
2021/10/05 11:38:50;;;;;;;3.40;2.13;;;17.10;86.40;;;;;;5078759;28;20070;-76
2021/10/05 11:41:17;;;;;;;4.88;1.67;;;17.20;85.90;;;;;;5089586;28;20360;-75
2021/10/05 11:43:48;;;;;;;3.90;2.13;;;17.30;85.70;;;;;;5075687;28;20033;-75
2021/10/05 11:46:19;;;;;;;4.38;1.80;;;17.30;85.60;;;;;;5074483;28;20036;-72
2021/10/05 11:48:50;;;;;;;3.83;1.42;;;17.40;85.50;;;;;;5089106;28;20418;-74
2021/10/05 11:51:17;;;;;;;6.47;1.85;;;17.40;85.20;;;;;;5082554;28;20118;-74
2021/10/05 11:53:44;;;;;;;3.00;1.73;;;17.50;85.40;;;;;;5075117;28;20035;-74
2021/10/05 11:56:12;;;;;;;3.22;1.90;;;17.60;85.80;;;;;;5073788;28;20017;-73
2021/10/05 11:58:50;;;;;;;6.95;2.08;;;17.60;84.60;;;;;;5080282;28;20071;-73
2021/10/05 12:01:28;;;;;;;5.25;1.70;;;17.60;84.50;;;;;;5074998;28;20028;-74
2021/10/05 12:03:58;;;;;;;3.10;1.38;;;17.70;84.00;;;;;;5079811;28;20101;-75
2021/10/05 12:06:35;;;;;;;5.60;1.45;;;17.70;83.40;;;;;;5073105;28;20120;-74
2021/10/05 12:09:04;;;;;;;2.30;1.65;;;17.80;83.10;;;;;;5076584;28;20035;-74
2021/10/05 12:11:40;;;;;;;2.25;1.50;;;17.80;83.00;;;;;;5085456;28;20120;-74
2021/10/05 12:14:06;;;;;;;2.92;1.52;;;17.80;83.20;;;;;;5086186;28;20036;-74
2021/10/05 12:16:32;;;;;;;3.17;1.17;;;17.90;83.10;;;;;;5086558;28;20442;-74
2021/10/05 12:19:00;;;;;;;3.80;1.13;;;17.90;82.30;;;;;;5086060;28;20063;-74
2021/10/05 12:21:29;;;;;;;3.47;1.23;;;18.00;81.90;;;;;;5076021;28;20017;-74
2021/10/05 12:24:00;;;;;;;2.45;1.40;;;18.00;81.30;;;;;;5086306;28;20044;-74
2021/10/05 12:26:26;;;;;;;5.18;2.05;;;18.00;81.90;;;;;;5076642;28;20115;-66
2021/10/05 12:29:00;;;;;;;3.58;1.50;;;18.10;82.10;;;;;;5079379;28;20074;-73
2021/10/05 12:31:29;;;;;;;2.22;1.67;;;18.10;82.60;;;;;;5073668;28;20050;-73
2021/10/05 12:33:57;;;;;;;2.78;1.30;;;18.10;81.90;;;;;;5081660;28;20528;-73
2021/10/05 12:36:24;;;;;;;8.88;2.08;;;18.20;81.60;;;;;;5084086;28;20037;-73
2021/10/05 12:38:49;;;;;;;3.33;1.60;;;18.20;81.60;;;;;;5087186;28;20028;-74
2021/10/05 12:41:15;;;;;;;3.30;1.70;;;18.30;81.70;;;;;;5090906;28;20475;-73
2021/10/05 12:43:42;;;;;;;4.68;1.88;;;18.20;81.40;;;;;;5088997;28;20465;-73
2021/10/05 12:46:17;;;;;;;2.33;1.30;;;18.30;81.20;;;;;;5072546;28;20111;-73